Weather at Eday Airport

Public forecast

Using degrees Celsius for public forecast. Weather courtesy of forecast.io.

Closest aviation weather report (METAR) to Eday Airport

Closest report is Kirkwall Airport, 14.6 nm (27.0 km) SSW.

2024/07/12 22:50 (retrieved 29 minutes ago)

EGPA 122250Z AUTO 01005KT 1900 -DZ BKN001/// OVC013/// 12/11 Q1019

Closest aviation forecast (TAF) to Eday Airport

Closest forecast is RAF Lossiemouth, 90.9 nm (168.4 km) SSW.

2024/07/12 21:06 Ammendment (retrieved 2 hours ago)

TAF AMD EGQS 122102Z 1221/1315 36010KT 9999 BKN016 TEMPO 1221/1309 4000 -DZ BKN006 PROB30 TEMPO 1221/1307 2500 DZ SCT003 PROB30 TEMPO 1309/1315 7000 -DZ SCT010